^^
Meteo Knjazevac Station Historical Data
Daily Summary for February 8, 2021 Units:  Metric    English   Both
Daily Weekly Monthly Yearly Custom
  High: Low: Average:
Temperature: 16.4 °C 11.2 °C 13.1 °C
Dew Point: 14.4 °C 10.6 °C 12.1 °C
Humidity: 96% 88% 94%
Wind Speed: 3.2km/h 0km/h 0.8km/h
Wind Gust: 6.4km/h - -
Wind- - WSW
Pressure: 1019.9 hPa 1018.8 hPa -
Precipitation: 0 mm    
Historical Graphs
 
 
Tabular Data for February 8, 2021
Time Temperature Dew Point Pressure Wind Wind Speed Wind Gust Humidity Rainfall Rate (Hourly) solar Conditions
00:00 16.4 °C 14.4 °C 1019.9 hPa Calm   4.8 km/h 88% 0 mm 0 W/m2
00:10 16.2 °C 14.3 °C 1019.9 hPa Calm   3.2 km/h 89% 0 mm 0 W/m2
00:20 15.9 °C 14.1 °C 1019.9 hPa SW 1.6 km/h 3.2 km/h 89% 0 mm 0 W/m2
00:30 15.5 °C 13.9 °C 1019.9 hPa Calm   3.2 km/h 90% 0 mm 0 W/m2
00:40 15.2 °C 13.6 °C 1019.5 hPa West 1.6 km/h 3.2 km/h 90% 0 mm 0 W/m2
00:50 14.9 °C 13.4 °C 1019.5 hPa WNW 1.6 km/h 3.2 km/h 91% 0 mm 0 W/m2
01:00 14.7 °C 13.2 °C 1019.5 hPa Calm   3.2 km/h 91% 0 mm 0 W/m2
01:10 14.4 °C 13.3 °C 1019.5 hPa WSW 3.2 km/h 6.4 km/h 93% 0 mm 0 W/m2
01:20 14.2 °C 13.1 °C 1019.5 hPa Calm   4.8 km/h 93% 0 mm 0 W/m2
01:30 14.1 °C 13.2 °C 1019.5 hPa Calm   3.2 km/h 94% 0 mm 0 W/m2
01:40 14.2 °C 13.2 °C 1019.5 hPa SSE 3.2 km/h 6.4 km/h 94% 0 mm 0 W/m2
01:50 14 °C 12.9 °C 1019.5 hPa SW 1.6 km/h 6.4 km/h 93% 0 mm 0 W/m2
02:00 13.8 °C 12.8 °C 1019.5 hPa Calm   3.2 km/h 94% 0 mm 0 W/m2
02:10 13.7 °C 12.8 °C 1019.5 hPa SW 1.6 km/h 4.8 km/h 94% 0 mm 0 W/m2
02:20 13.6 °C 12.6 °C 1019.5 hPa Calm   3.2 km/h 94% 0 mm 0 W/m2
02:30 13.3 °C 12.3 °C 1019.2 hPa WNW 1.6 km/h 3.2 km/h 94% 0 mm 0 W/m2
02:40 13 °C 11.9 °C 1019.2 hPa Calm   3.2 km/h 93% 0 mm 0 W/m2
02:50 12.8 °C 11.8 °C 1019.2 hPa Calm   3.2 km/h 94% 0 mm 0 W/m2
03:00 12.6 °C 11.7 °C 1019.2 hPa SW 1.6 km/h 3.2 km/h 94% 0 mm 0 W/m2
03:10 12.4 °C 11.4 °C 1019.2 hPa Calm   3.2 km/h 94% 0 mm 0 W/m2
03:20 12.4 °C 11.6 °C 1018.8 hPa North 1.6 km/h 3.2 km/h 95% 0 mm 0 W/m2
03:30 12.3 °C 11.5 °C 1018.8 hPa NW 1.6 km/h 3.2 km/h 95% 0 mm 0 W/m2
03:40 12 °C 11.2 °C 1018.8 hPa WSW 1.6 km/h 4.8 km/h 95% 0 mm 0 W/m2
03:50 11.8 °C 11 °C 1019.2 hPa Calm   3.2 km/h 95% 0 mm 0 W/m2
04:00 11.8 °C 11 °C 1019.2 hPa WNW 1.6 km/h 3.2 km/h 95% 0 mm 0 W/m2
04:10 11.7 °C 10.9 °C 1019.2 hPa Calm   3.2 km/h 95% 0 mm 0 W/m2
04:20 11.6 °C 10.8 °C 1019.2 hPa Calm   3.2 km/h 95% 0 mm 0 W/m2
04:30 11.6 °C 10.9 °C 1019.2 hPa North 1.6 km/h 6.4 km/h 96% 0 mm 0 W/m2
04:40 11.5 °C 10.9 °C 1019.2 hPa NNW 1.6 km/h 3.2 km/h 96% 0 mm 0 W/m2
04:50 11.5 °C 10.9 °C 1019.2 hPa Calm   3.2 km/h 96% 0 mm 3 W/m2
05:00 11.3 °C 10.7 °C 1019.2 hPa Calm   3.2 km/h 96% 0 mm 8 W/m2
05:10 11.3 °C 10.7 °C 1019.2 hPa Calm   4.8 km/h 96% 0 mm 14 W/m2
05:20 11.3 °C 10.7 °C 1019.2 hPa Calm   3.2 km/h 96% 0 mm 23 W/m2
05:30 11.2 °C 10.6 °C 1019.2 hPa Calm   3.2 km/h 96% 0 mm 33 W/m2
05:40 11.2 °C 10.6 °C 1019.5 hPa Calm   3.2 km/h 96% 0 mm 42 W/m2
Knjazevac, Serbia
Compliments of Weather Underground - 2 mb